Airfield :







YOU CAN JOIN US ON...

 
LOGIN :

Register | Disclaimer

   EN    FR    IT 

 









Legend :    VFR   Marginal VFR   IFR   Intensive IFR   Very Intensive IFR
Visi :
Ceiling :
>= 8 km
>= 3000ft
5 to 8 km
1000 to 3000 ft
1500m to 5 km
500 to 1000 ft
800 to 1500m
200 to 500 ft
< 800m
< 200 ft
Symbols :   Thunderstorms  Fog  Heavy snow  Heavy precipitations  Wind > 20 kt






- Airport Elevation : 534 ft
- IATA code : PQI


KPQI - Northern Maine Regional Arpt At Presque Isle

CURRENT METAR :
  • 261456Z AUTO 06005KT 10SM FEW065 16/08 A3001 RMK AO2 SLP190 T01560078 51014

EXPIRED METARs :
  • 261356Z AUTO 36004KT 10SM FEW070 SCT090 OVC110 14/09 A3000 RMK AO2 SLP185 T01390094
  • 261256Z AUTO 36004KT 10SM SCT070 OVC110 12/09 A2999 RMK AO2 SLP180 T01220089
  • 261156Z AUTO 01003KT 10SM FEW075 BKN110 11/09 A2997 RMK AO2 RAB35E49 SLP174 P0000 60000 T01110089 10111 20072 53017
  • 261056Z AUTO 00000KT 10SM OVC120 11/08 A2995 RMK AO2 SLP167 T01060083

TAF KPQI
Valid from the 26 at 12:00 until the 27 at 12:00 UTC


261120Z 2612/2712 16003KT P6SM BKN100
FM270400 12003KT P6SM SCT025
FM270900 12003KT P6SM BCFG FEW002 BKN015
KZBW FIR / North America



MET'MAP, your aeronautical weather chart ! - Copyright ORBIFLY December 2007 - Disclaimer

ORBIFLY MET'MAP TEAM :

Programming & Development : Alexandra Zaïnal
Original concept : Baudouin d'Aumeries
Technical & hardware support : Manuel Goepfert
Assistance : Marc-Olivier Méhu




SOURCES & CREDITS :

   NOAA